Saint-Jean-sur-Richelieu, Canada
Current Conditions -  °F | °C
As of 6:00 PM on Friday 19 Dec 2014 (Local Time) from CYHU Reporting Station
Clear Clear  
Wind Chill:   Ceiling: Unl
Heat Index: 21°   Visibility: 9mi
Dew Point: 14°   Wind: 14mph
Humidity: 74%   Direction: 240°WSW
Pressure: 30.19"   Gusts: NA
Location:  45.32°N, 73.27°W
Report Text: CYHU 192300Z AUTO 24012KT 9SM CLR M06/M10 A3019 RMK SLP226
Loading
Personal Weather Stations






























Interactive Weather Map New forecast layout! Learn more

10-Day Weather Forecast

Advertisements
Track Severe Weather on mobile